Time;durP1;ratioP1;P1;durP2;ratioP2;P2;SDS_P1;SDS_P2;PMS_P1;PMS_P2;Temp;Humidity;BMP_temperature;BMP_pressure;BME280_temperature;BME280_humidity;BME280_pressure;Samples;Min_cycle;Max_cycle;Signal;HPM_P1;HPM_P2
2024/01/23 00:01:51;;;;;;;52.50;24.97;;;;;;;-2.95;100.00;145337.44;5112336;28;20252;-56
2024/01/23 00:04:18;;;;;;;48.90;23.60;;;;;;;-2.90;100.00;145348.69;5112427;28;20575;-55
2024/01/23 00:06:45;;;;;;;55.93;27.30;;;;;;;-2.76;100.00;145384.91;5112467;28;20553;-55
2024/01/23 00:09:12;;;;;;;62.03;29.13;;;;;;;-2.55;100.00;145436.19;5111997;28;20180;-56
2024/01/23 00:11:39;;;;;;;57.30;29.00;;;;;;;-2.63;100.00;145416.16;5112432;28;20184;-56
2024/01/23 00:14:07;;;;;;;68.23;33.50;;;;;;;-2.50;100.00;145447.38;5112457;28;20691;-56
2024/01/23 00:16:34;;;;;;;49.63;24.40;;;;;;;-2.79;100.00;145376.16;5112317;28;20203;-56
2024/01/23 00:19:01;;;;;;;69.37;35.73;;;;;;;-2.57;100.00;145431.16;5111976;28;20184;-56
2024/01/23 00:21:29;;;;;;;68.17;31.20;;;;;;;-2.66;100.00;145408.66;5112251;28;20615;-57
2024/01/23 00:23:56;;;;;;;54.63;28.70;;;;;;;-2.87;100.00;145356.19;5112319;28;20577;-57
2024/01/23 00:26:23;;;;;;;72.57;35.10;;;;;;;-2.86;100.00;145358.69;5112043;28;20183;-56
2024/01/23 00:28:50;;;;;;;79.03;37.93;;;;;;;-2.66;100.00;145407.41;5114919;28;20236;-56
2024/01/23 00:31:17;;;;;;;59.80;31.87;;;;;;;-2.73;100.00;145389.94;5116311;28;20607;-55
2024/01/23 00:33:44;;;;;;;51.90;29.90;;;;;;;-2.85;100.00;145361.19;5116046;28;20187;-57
2024/01/23 00:36:11;;;;;;;57.00;29.57;;;;;;;-2.76;100.00;145384.91;5116221;28;20629;-55
2024/01/23 00:38:38;;;;;;;50.70;27.73;;;;;;;-2.63;100.00;145416.16;5116138;28;20191;-55
2024/01/23 00:41:05;;;;;;;51.50;27.93;;;;;;;-2.59;100.00;145426.19;5116301;28;20256;-55
2024/01/23 00:43:32;;;;;;;53.60;28.37;;;;;;;-2.56;100.00;145433.66;5116201;28;20183;-56
2024/01/23 00:46:00;;;;;;;46.67;25.93;;;;;;;-2.54;100.00;145438.63;5115992;28;20240;-55
2024/01/23 00:48:28;;;;;;;46.17;26.33;;;;;;;-2.56;100.00;145433.66;5115785;28;20236;-57
2024/01/23 00:50:55;;;;;;;46.03;26.80;;;;;;;-2.66;100.00;145408.66;5115676;28;20183;-57
2024/01/23 00:53:22;;;;;;;54.13;28.37;;;;;;;-2.60;100.00;145423.69;5115982;28;20630;-58
2024/01/23 00:55:49;;;;;;;45.53;26.63;;;;;;;-2.54;100.00;145438.63;5115540;28;20275;-56
2024/01/23 00:58:16;;;;;;;57.60;30.07;;;;;;;-2.71;100.00;145396.16;5115374;28;20203;-57
2024/01/23 01:00:44;;;;;;;69.87;33.37;;;;;;;-2.61;100.00;145421.16;5115470;28;20236;-57
2024/01/23 01:03:11;;;;;;;65.23;32.27;;;;;;;-2.46;100.00;145458.63;5116021;28;20660;-56
2024/01/23 01:05:41;;;;;;;71.13;32.53;;;;;;;-2.46;100.00;145457.44;5115449;28;20236;-57
2024/01/23 01:08:08;;;;;;;63.70;30.80;;;;;;;-2.56;100.00;145433.66;5115759;28;20627;-57
2024/01/23 01:10:35;;;;;;;69.40;36.20;;;;;;;-2.70;100.00;145398.66;5115774;28;20191;-57
2024/01/23 01:13:03;;;;;;;75.50;38.17;;;;;;;-2.64;100.00;145412.44;5115654;28;20180;-56
2024/01/23 01:15:30;;;;;;;62.57;32.67;;;;;;;-2.71;100.00;145396.16;5115376;28;20223;-55
2024/01/23 01:17:57;;;;;;;50.10;26.67;;;;;;;-2.85;100.00;145362.47;5115453;28;20203;-56
2024/01/23 01:20:24;;;;;;;49.97;26.87;;;;;;;-3.09;100.00;145302.47;5115161;28;20184;-56
2024/01/23 01:22:53;;;;;;;48.97;26.30;;;;;;;-3.11;100.00;145296.22;5115725;28;20183;-56
2024/01/23 01:25:20;;;;;;;51.27;26.70;;;;;;;-3.45;100.00;145213.81;5115091;28;20183;-56
2024/01/23 01:27:47;;;;;;;56.00;25.60;;;;;;;-3.16;100.00;145284.97;5115005;28;20307;-56
2024/01/23 01:30:14;;;;;;;55.70;28.77;;;;;;;-3.01;100.00;145321.22;5115131;28;20203;-56
2024/01/23 01:32:41;;;;;;;54.70;29.63;;;;;;;-3.09;100.00;145301.19;5115079;28;20195;-55
2024/01/23 01:35:09;;;;;;;58.13;30.27;;;;;;;-3.25;100.00;145263.75;5115160;28;20554;-56
2024/01/23 01:37:36;;;;;;;59.67;33.03;;;;;;;-3.02;100.00;145319.97;5114643;28;20212;-55
2024/01/23 01:40:05;;;;;;;69.30;36.07;;;;;;;-2.98;100.00;145329.97;5114224;28;20706;-56
2024/01/23 01:42:32;;;;;;;68.87;35.10;;;;;;;-2.92;100.00;145344.94;5114775;28;20190;-56
2024/01/23 01:44:59;;;;;;;72.83;36.63;;;;;;;-3.10;100.00;145298.75;5114616;28;20244;-57
2024/01/23 01:47:26;;;;;;;59.33;32.33;;;;;;;-3.16;100.00;145283.72;5114581;28;20180;-55
2024/01/23 01:49:54;;;;;;;74.43;34.67;;;;;;;-3.26;100.00;145261.25;5114859;28;20606;-55
2024/01/23 01:52:21;;;;;;;72.40;33.93;;;;;;;-3.29;100.00;145252.50;5114874;28;20270;-56
2024/01/23 01:54:49;;;;;;;64.40;34.17;;;;;;;-3.22;100.00;144183.97;5114457;28;20264;-57
2024/01/23 01:57:21;;;;;;;66.77;34.50;;;;;;;-3.31;100.00;144204.81;5114596;28;20672;-55
2024/01/23 01:59:48;;;;;;;59.20;31.50;;;;;;;-3.35;100.00;144301.81;5114291;28;20183;-55
2024/01/23 02:02:16;;;;;;;68.77;30.80;;;;;;;-3.64;100.00;145165.09;5114721;28;20718;-56
2024/01/23 02:04:43;;;;;;;69.50;31.83;;;;;;;-3.45;100.00;145213.81;5114696;28;20691;-57
2024/01/23 02:07:11;;;;;;;56.97;31.77;;;;;;;-3.24;100.00;145266.25;5114739;28;20526;-57
2024/01/23 02:09:39;;;;;;;66.00;31.93;;;;;;;-3.24;100.00;145265.00;5114237;28;20191;-55
2024/01/23 02:12:07;;;;;;;64.83;33.37;;;;;;;-3.10;100.00;145300.00;5114090;28;20275;-57
2024/01/23 02:14:35;;;;;;;63.50;33.77;;;;;;;-3.04;100.00;145313.69;5114452;28;20192;-55
2024/01/23 02:17:02;;;;;;;60.97;32.70;;;;;;;-3.00;100.00;145323.69;5114053;27;20204;-57
2024/01/23 02:19:29;;;;;;;63.30;33.50;;;;;;;-3.02;100.00;145318.72;5114317;28;20703;-58
2024/01/23 02:21:57;;;;;;;60.00;32.30;;;;;;;-2.88;100.00;145354.91;5114019;27;20248;-56
2024/01/23 02:24:25;;;;;;;65.73;34.50;;;;;;;-2.97;100.00;145332.44;5114011;27;20179;-56
2024/01/23 02:26:52;;;;;;;68.00;33.27;;;;;;;-3.24;100.00;145265.00;5114320;28;20530;-56
2024/01/23 02:29:19;;;;;;;61.23;30.87;;;;;;;-3.13;100.00;145292.47;5114129;28;20261;-58
2024/01/23 02:31:46;;;;;;;73.67;33.70;;;;;;;-3.18;100.00;145278.75;5114234;28;20179;-56
2024/01/23 02:34:13;;;;;;;64.50;32.43;;;;;;;-3.12;100.00;145294.97;5113657;28;20236;-56
2024/01/23 02:36:41;;;;;;;64.97;32.73;;;;;;;-3.12;100.00;145293.72;5114013;28;20579;-57
2024/01/23 02:39:08;;;;;;;68.47;37.00;;;;;;;-2.95;100.00;145337.44;5113910;28;20616;-57
2024/01/23 02:41:36;;;;;;;75.17;39.13;;;;;;;-2.87;100.00;145357.44;5113784;28;20222;-55
2024/01/23 02:44:03;;;;;;;70.47;36.37;;;;;;;-2.91;100.00;145347.44;5113576;28;20240;-57
2024/01/23 02:46:30;;;;;;;68.73;36.00;;;;;;;-2.89;100.00;145352.47;5113783;28;20183;-57
2024/01/23 02:48:58;;;;;;;73.07;36.10;;;;;;;-2.85;100.00;145362.47;5113686;28;20699;-55
2024/01/23 02:51:25;;;;;;;75.80;38.00;;;;;;;-3.19;100.00;145276.25;5113379;28;20232;-55
2024/01/23 02:53:52;;;;;;;70.10;37.80;;;;;;;-3.03;100.00;145317.47;5113369;28;20284;-57
2024/01/23 02:56:19;;;;;;;66.80;37.17;;;;;;;-3.18;100.00;145279.97;5113546;28;20679;-57
2024/01/23 02:58:46;;;;;;;83.90;40.13;;;;;;;-3.01;100.00;145321.22;5113156;28;20256;-55
2024/01/23 03:01:13;;;;;;;80.57;37.73;;;;;;;-3.38;100.00;145231.28;5113123;28;20188;-55
2024/01/23 03:03:40;;;;;;;79.63;37.73;;;;;;;-3.87;100.00;145108.94;5113206;28;20240;-57
2024/01/23 03:06:07;;;;;;;60.83;33.07;;;;;;;-3.51;100.00;145198.81;5113537;28;20640;-56
2024/01/23 03:08:34;;;;;;;73.17;36.70;;;;;;;-3.67;100.00;145158.88;5113421;28;20180;-58
2024/01/23 03:11:01;;;;;;;73.97;37.37;;;;;;;-4.17;100.00;145035.31;5113487;28;20699;-56
2024/01/23 03:13:28;;;;;;;78.23;36.73;;;;;;;-3.87;100.00;145110.19;5113295;28;20547;-56
2024/01/23 03:15:57;;;;;;;60.07;30.27;;;;;;;-3.59;100.00;145178.84;5112909;28;20187;-55
2024/01/23 03:18:24;;;;;;;44.27;23.47;;;;;;;-3.48;100.00;145205.06;5113120;28;20252;-57
2024/01/23 03:20:51;;;;;;;54.53;28.27;;;;;;;-3.21;100.00;145272.47;5113115;28;20600;-56
2024/01/23 03:23:18;;;;;;;68.57;33.33;;;;;;;-3.10;100.00;145300.00;5112685;28;20183;-57
2024/01/23 03:25:45;;;;;;;57.67;31.63;;;;;;;-3.16;100.00;145283.72;5112875;28;20370;-57
2024/01/23 03:28:12;;;;;;;57.43;30.63;;;;;;;-3.08;100.00;145304.97;5112825;28;20198;-55
2024/01/23 03:30:40;;;;;;;61.57;32.43;;;;;;;-3.07;100.00;145306.22;5112985;28;20183;-55
2024/01/23 03:33:08;;;;;;;57.23;31.63;;;;;;;-3.31;100.00;145248.75;5112560;28;20188;-56
2024/01/23 03:35:35;;;;;;;55.70;30.73;;;;;;;-3.20;100.00;145275.00;5112882;28;20176;-56
2024/01/23 03:38:04;;;;;;;56.33;31.50;;;;;;;-3.36;100.00;145236.28;5112815;28;20730;-57
2024/01/23 03:40:31;;;;;;;57.90;29.50;;;;;;;-3.31;100.00;145247.53;5112427;28;20191;-56
2024/01/23 03:42:58;;;;;;;63.43;35.77;;;;;;;-3.13;100.00;145292.47;5112489;28;20240;-56
2024/01/23 03:45:25;;;;;;;73.93;37.43;;;;;;;-3.03;100.00;145317.47;5112644;28;20672;-55
2024/01/23 03:47:52;;;;;;;64.77;33.93;;;;;;;-3.04;100.00;145314.97;5112309;28;20180;-56
2024/01/23 03:50:21;;;;;;;74.77;39.43;;;;;;;-2.91;100.00;145346.19;5112251;28;20180;-56
2024/01/23 03:52:48;;;;;;;53.33;29.70;;;;;;;-3.10;100.00;145298.75;5112318;28;20192;-55
2024/01/23 03:55:15;;;;;;;60.47;30.13;;;;;;;-2.89;100.00;145352.47;5112253;28;20347;-58
2024/01/23 03:57:44;;;;;;;47.13;28.17;;;;;;;-2.83;100.00;145367.44;5112495;28;20236;-56
2024/01/23 04:00:12;;;;;;;50.50;28.70;;;;;;;-2.95;100.00;145336.19;5112160;28;20187;-56
2024/01/23 04:02:39;;;;;;;36.40;22.73;;;;;;;-3.00;100.00;145323.69;5112120;28;20225;-57
2024/01/23 04:05:08;;;;;;;39.50;23.80;;;;;;;-2.88;100.00;145353.66;5112513;28;20195;-56
2024/01/23 04:07:36;;;;;;;38.27;22.43;;;;;;;-2.90;100.00;145348.69;5112093;28;20186;-58
2024/01/23 04:10:04;;;;;;;36.30;22.00;;;;;;;-2.92;100.00;145343.69;5112466;28;20232;-58
2024/01/23 04:12:31;;;;;;;33.17;21.20;;;;;;;-2.85;100.00;145361.19;5112310;28;20187;-58
2024/01/23 04:14:59;;;;;;;39.33;21.73;;;;;;;-2.89;100.00;145352.47;5112221;28;20180;-56
2024/01/23 04:17:28;;;;;;;43.13;23.63;;;;;;;-3.00;100.00;145323.69;5111935;28;20197;-57
2024/01/23 04:19:55;;;;;;;54.27;28.70;;;;;;;-2.73;100.00;143696.47;5112366;28;20606;-58
2024/01/23 04:22:22;;;;;;;57.60;31.20;;;;;;;-2.62;100.00;142915.91;5112025;28;20187;-57
2024/01/23 04:24:51;;;;;;;73.60;37.30;;;;;;;-2.61;100.00;142793.56;5112308;28;20581;-58
2024/01/23 04:27:18;;;;;;;96.10;44.43;;;;;;;-2.47;100.00;143468.91;5112256;28;20183;-55
2024/01/23 04:29:45;;;;;;;116.07;53.50;;;;;;;-2.28;100.00;144141.75;5111866;28;20183;-57
2024/01/23 04:32:12;;;;;;;119.73;53.00;;;;;;;-2.24;100.00;145512.38;5112330;28;20183;-57
2024/01/23 04:34:39;;;;;;;116.83;52.13;;;;;;;-2.15;100.00;145533.66;5112030;28;20240;-56
2024/01/23 04:37:06;;;;;;;123.17;51.27;;;;;;;-2.00;100.00;145571.19;5112229;28;20187;-57
2024/01/23 04:39:34;;;;;;;140.07;51.43;;;;;;;-2.09;100.00;145549.94;5112168;28;20203;-57
2024/01/23 04:42:02;;;;;;;122.73;50.20;;;;;;;-2.14;100.00;145536.16;5111980;28;20225;-56
2024/01/23 04:44:29;;;;;;;124.27;53.57;;;;;;;-2.20;100.00;145521.13;5111740;28;20279;-58
2024/01/23 04:46:57;;;;;;;153.27;59.53;;;;;;;-2.12;100.00;145542.38;5112099;28;20637;-57
2024/01/23 04:49:24;;;;;;;143.80;58.47;;;;;;;-2.08;100.00;145552.38;5111666;28;20228;-56
2024/01/23 04:51:51;;;;;;;132.57;58.13;;;;;;;-2.03;100.00;145563.66;5112137;28;20188;-56
2024/01/23 04:54:18;;;;;;;149.17;61.37;;;;;;;-2.21;100.00;145519.94;5111505;28;20231;-56
2024/01/23 04:56:45;;;;;;;144.40;59.40;;;;;;;-1.89;100.00;145598.66;5112111;28;20188;-56
2024/01/23 04:59:13;;;;;;;133.17;58.47;;;;;;;-1.90;100.00;145596.16;5111703;28;20203;-56
2024/01/23 05:01:40;;;;;;;129.30;58.97;;;;;;;-1.84;100.00;145611.19;5111673;28;20225;-57
2024/01/23 05:04:07;;;;;;;121.43;54.83;;;;;;;-1.80;100.00;145621.19;5111603;28;20244;-56
2024/01/23 05:06:34;;;;;;;114.67;53.90;;;;;;;-1.85;100.00;145608.69;5112281;28;20183;-56
2024/01/23 05:09:02;;;;;;;122.17;53.77;;;;;;;-1.77;100.00;145627.41;5111513;28;20176;-56
2024/01/23 05:11:29;;;;;;;116.10;52.87;;;;;;;-1.96;100.00;145581.19;5111949;28;20656;-56
2024/01/23 05:13:56;;;;;;;121.70;52.80;;;;;;;-1.73;100.00;145638.69;5111392;28;20270;-57
2024/01/23 05:16:25;;;;;;;103.80;47.70;;;;;;;-1.62;100.00;145664.97;5115108;28;20187;-55
2024/01/23 05:18:52;;;;;;;103.80;46.20;;;;;;;-1.55;100.00;145683.72;5115382;28;20260;-57
2024/01/23 05:21:19;;;;;;;102.73;48.10;;;;;;;-1.54;100.00;145686.25;5115292;28;20223;-56
2024/01/23 05:23:46;;;;;;;108.63;49.50;;;;;;;-1.57;100.00;145678.69;5115263;28;20224;-56
2024/01/23 05:26:13;;;;;;;103.87;47.00;;;;;;;-1.73;100.00;145638.69;5115087;28;20184;-56
2024/01/23 05:28:40;;;;;;;106.70;47.50;;;;;;;-1.68;100.00;145651.19;5115386;28;20179;-56
2024/01/23 05:31:07;;;;;;;113.57;48.47;;;;;;;-1.70;100.00;145644.97;5114974;28;20194;-56
2024/01/23 05:33:36;;;;;;;103.90;52.10;;;;;;;-1.69;100.00;145648.69;5114904;28;20187;-57
2024/01/23 05:36:03;;;;;;;101.87;45.20;;;;;;;-1.74;100.00;145634.97;5114743;28;20237;-56
2024/01/23 05:38:30;;;;;;;93.63;42.33;;;;;;;-1.79;100.00;145623.69;5114964;28;20248;-56
2024/01/23 05:40:57;;;;;;;95.17;42.17;;;;;;;-1.94;100.00;145586.16;5115091;28;20546;-57
2024/01/23 05:43:24;;;;;;;87.97;42.20;;;;;;;-2.05;100.00;145559.91;5114908;28;20180;-56
2024/01/23 05:45:53;;;;;;;91.43;42.03;;;;;;;-1.77;100.00;145628.69;5114655;28;20241;-57
2024/01/23 05:48:20;;;;;;;88.47;43.00;;;;;;;-1.70;100.00;145644.97;5114876;28;20289;-56
2024/01/23 05:50:48;;;;;;;99.23;43.23;;;;;;;-1.50;100.00;145696.25;5114508;28;20191;-56
2024/01/23 05:53:15;;;;;;;88.87;43.17;;;;;;;-1.53;100.00;145687.50;5114636;28;20568;-58
2024/01/23 05:55:42;;;;;;;93.13;43.60;;;;;;;-1.50;100.00;145694.97;5114348;28;20235;-57
2024/01/23 05:58:10;;;;;;;92.30;44.33;;;;;;;-1.36;100.00;145730.03;5114224;28;20256;-56
2024/01/23 06:00:37;;;;;;;97.53;42.57;;;;;;;-1.19;100.00;145771.31;5114714;28;20237;-57
2024/01/23 06:03:04;;;;;;;81.90;38.97;;;;;;;-1.11;100.00;145791.34;5114636;28;20205;-58
2024/01/23 06:05:31;;;;;;;92.10;39.03;;;;;;;-0.87;100.00;145850.13;5114575;28;20188;-56
2024/01/23 06:08:00;;;;;;;81.30;38.93;;;;;;;-0.90;100.00;145842.63;5114460;28;20600;-56
2024/01/23 06:10:27;;;;;;;74.97;37.70;;;;;;;-0.87;100.00;145851.41;5114123;27;20360;-57
2024/01/23 06:12:54;;;;;;;79.77;37.23;;;;;;;-0.93;100.00;145837.63;5114272;28;20211;-57
2024/01/23 06:15:21;;;;;;;84.67;36.60;;;;;;;-1.00;100.00;145818.84;5114298;28;20184;-56
2024/01/23 06:17:48;;;;;;;77.83;37.97;;;;;;;-0.83;100.00;145860.16;5113859;28;20248;-57
2024/01/23 06:20:16;;;;;;;86.40;40.93;;;;;;;-0.93;100.00;145836.34;5113712;28;20208;-57
2024/01/23 06:22:43;;;;;;;87.43;40.40;;;;;;;-0.88;100.00;145848.88;5114200;27;20183;-57
2024/01/23 06:25:14;;;;;;;77.13;38.33;;;;;;;-0.95;100.00;145832.63;5113778;28;20560;-57
2024/01/23 06:27:41;;;;;;;93.90;40.47;;;;;;;-0.85;100.00;145856.44;5113960;28;20190;-57
2024/01/23 06:30:11;;;;;;;89.20;39.90;;;;;;;-0.66;100.00;145903.97;5113938;28;20192;-57
2024/01/23 06:32:39;;;;;;;87.57;38.10;;;;;;;-0.49;100.00;145946.53;5114090;28;20191;-57
2024/01/23 06:35:07;;;;;;;87.50;41.90;;;;;;;-0.39;100.00;145970.34;5114184;28;20553;-56
2024/01/23 06:37:34;;;;;;;71.87;35.57;;;;;;;-0.28;100.00;145997.88;5114252;28;20660;-55
2024/01/23 06:40:01;;;;;;;74.37;35.87;;;;;;;-0.09;100.00;146045.50;5113509;28;20647;-57
2024/01/23 06:42:30;;;;;;;75.55;41.25;;;;;;;0.08;100.00;146085.56;5113233;28;20886;-57
2024/01/23 06:44:57;;;;;;;67.43;34.67;;;;;;;0.46;100.00;146180.81;5113922;28;20742;-58
2024/01/23 06:47:24;;;;;;;77.70;36.37;;;;;;;0.69;100.00;146237.16;5113799;28;20556;-59
2024/01/23 06:49:51;;;;;;;71.93;37.20;;;;;;;0.97;100.00;146306.13;5113644;28;20179;-57
2024/01/23 06:52:18;;;;;;;68.53;36.43;;;;;;;1.17;100.00;146357.53;5113420;28;20179;-59
2024/01/23 06:54:45;;;;;;;78.80;43.90;;;;;;;1.76;100.00;146503.03;5113250;28;20239;-57
2024/01/23 06:57:13;;;;;;;60.77;33.57;;;;;;;2.62;100.00;146716.41;5113208;28;20699;-58
2024/01/23 06:59:41;;;;;;;54.10;32.87;;;;;;;3.43;100.00;146917.38;5112828;28;20211;-58
2024/01/23 07:02:10;;;;;;;56.97;31.83;;;;;;;3.89;100.00;147031.75;5113290;28;20199;-58
2024/01/23 07:04:40;;;;;;;55.83;30.83;;;;;;;4.43;100.00;147166.25;5112846;28;20248;-57
2024/01/23 07:07:07;;;;;;;60.80;33.13;;;;;;;4.39;100.00;147156.22;5112809;28;20187;-58
2024/01/23 07:09:34;;;;;;;60.50;33.73;;;;;;;4.54;100.00;147195.16;5112924;28;20189;-58
2024/01/23 07:12:02;;;;;;;65.87;34.67;;;;;;;5.16;100.00;147347.41;5113067;28;20182;-58
2024/01/23 07:14:29;;;;;;;59.97;30.77;;;;;;;5.73;100.00;147489.66;5113196;28;20660;-58
2024/01/23 07:16:57;;;;;;;61.20;32.93;;;;;;;6.68;100.00;147727.75;5113556;28;20187;-58
2024/01/23 07:19:24;;;;;;;58.93;31.27;;;;;;;7.96;100.00;148046.69;5112887;28;20207;-58
2024/01/23 07:21:51;;;;;;;61.13;34.90;;;;;;;8.37;100.00;148148.91;5112600;28;20245;-58
2024/01/23 07:24:18;;;;;;;59.83;31.50;;;;;;;8.54;100.00;148190.56;5113172;28;20180;-59
2024/01/23 07:26:45;;;;;;;64.33;32.90;;;;;;;7.91;100.00;148034.06;5112632;28;20188;-58
2024/01/23 07:29:12;;;;;;;73.37;43.23;;;;;;;7.05;100.00;147819.72;5112791;28;20187;-59
2024/01/23 07:31:40;;;;;;;85.70;47.77;;;;;;;6.51;100.00;147684.91;5112583;28;20179;-56
2024/01/23 07:34:09;;;;;;;97.17;52.07;;;;;;;5.76;100.00;147498.47;5113893;28;20679;-57
2024/01/23 07:36:36;;;;;;;102.63;56.10;;;;;;;5.03;100.00;147317.22;5112318;28;20187;-55
2024/01/23 07:39:05;;;;;;;91.23;52.57;;;;;;;5.28;100.00;147378.88;5112149;28;20609;-56
2024/01/23 07:41:32;;;;;;;106.27;63.00;;;;;;;4.91;100.00;147287.03;5112377;28;20274;-57
2024/01/23 07:43:59;;;;;;;93.07;49.40;;;;;;;4.73;100.00;147241.72;5113074;28;20562;-58
2024/01/23 07:46:26;;;;;;;102.33;51.93;;;;;;;4.65;100.00;147221.63;5113121;28;20232;-57
2024/01/23 07:48:53;;;;;;;109.27;54.57;;;;;;;4.70;100.00;147232.94;5112693;28;20225;-58
2024/01/23 07:51:22;;;;;;;104.27;54.70;;;;;;;4.69;100.00;147231.69;5112760;28;20187;-57
2024/01/23 07:53:50;;;;;;;95.60;52.00;;;;;;;4.53;100.00;147192.69;5112340;28;20605;-57
2024/01/23 07:56:18;;;;;;;97.20;55.87;;;;;;;4.50;100.00;147183.84;5112213;28;20183;-57
2024/01/23 07:58:46;;;;;;;115.03;57.27;;;;;;;4.35;100.00;147146.16;5112205;28;20203;-59
2024/01/23 08:01:13;;;;;;;104.87;56.13;;;;;;;4.32;100.00;147139.88;5112276;28;20199;-57
2024/01/23 08:03:41;;;;;;;97.10;53.30;;;;;;;4.43;100.00;147166.25;5111820;28;20183;-58
2024/01/23 08:06:08;;;;;;;104.00;54.27;;;;;;;4.52;100.00;147190.16;5112161;28;20191;-57
2024/01/23 08:08:39;;;;;;;106.93;55.13;;;;;;;4.54;100.00;147193.97;5111974;28;20183;-57
2024/01/23 08:11:06;;;;;;;112.70;55.63;;;;;;;4.67;100.00;147225.41;5111797;28;20202;-57
2024/01/23 08:13:33;;;;;;;104.93;54.83;;;;;;;4.63;100.00;147216.56;5112224;28;20180;-59
2024/01/23 08:16:00;;;;;;;116.10;56.37;;;;;;;4.51;100.00;147186.38;5112154;28;20183;-58
2024/01/23 08:18:27;;;;;;;117.33;52.93;;;;;;;4.67;100.00;147226.63;5111845;28;20240;-59
2024/01/23 08:20:55;;;;;;;109.97;54.20;;;;;;;4.79;100.00;147256.84;5111785;28;20245;-57
2024/01/23 08:23:22;;;;;;;113.40;58.87;;;;;;;4.67;100.00;147226.63;5111805;28;20236;-58
2024/01/23 08:25:50;;;;;;;110.63;57.60;;;;;;;4.76;100.00;147249.28;5111807;28;20232;-60
2024/01/23 08:28:17;;;;;;;107.40;55.37;;;;;;;5.34;100.00;147392.72;5112492;28;20180;-58
2024/01/23 08:30:44;;;;;;;102.47;53.17;;;;;;;6.27;100.00;147624.44;5111759;28;20183;-57
2024/01/23 08:33:17;;;;;;;92.50;51.83;;;;;;;7.54;100.00;147942.03;5112071;28;20179;-58
2024/01/23 08:35:44;;;;;;;90.57;48.47;;;;;;;9.14;100.00;148340.75;5112259;28;20191;-58
2024/01/23 08:38:11;;;;;;;83.30;46.73;;;;;;;10.71;100.00;148732.44;5112110;28;20199;-58
2024/01/23 08:40:38;;;;;;;80.93;41.93;;;;;;;12.67;85.71;149224.66;5111852;28;20230;-59
2024/01/23 08:43:07;;;;;;;69.63;37.97;;;;;;;13.93;74.56;149538.84;5111769;28;20188;-60
2024/01/23 08:45:34;;;;;;;49.45;28.02;;;;;;;16.21;66.20;150112.28;5111722;28;20435;-59
2024/01/23 08:48:01;;;;;;;38.67;24.40;;;;;;;16.84;60.08;150269.84;5111803;28;20263;-58
2024/01/23 08:50:28;;;;;;;53.23;31.07;;;;;;;16.72;56.21;150239.38;5115687;28;20188;-58
2024/01/23 08:52:55;;;;;;;55.23;36.40;;;;;;;17.14;56.11;150344.78;5116276;28;20188;-57
2024/01/23 08:55:22;;;;;;;265.20;241.10;;;;;;;18.20;53.57;150611.75;5115241;28;20283;-57
2024/01/23 08:57:50;;;;;;;68.53;39.10;;;;;;;17.51;53.57;150438.81;5115773;27;20260;-57
2024/01/23 09:00:20;;;;;;;65.73;36.73;;;;;;;17.25;54.29;150372.72;5115384;28;20207;-58
2024/01/23 09:02:47;;;;;;;54.93;30.30;;;;;;;19.06;51.95;150827.97;5115789;28;20190;-60
2024/01/23 09:05:14;;;;;;;38.07;28.53;;;;;;;18.59;51.13;150710.94;5115536;28;20179;-57
2024/01/23 09:07:43;;;;;;;59.33;34.27;;;;;;;17.87;51.58;150529.06;5115491;28;20179;-57
2024/01/23 09:10:10;;;;;;;59.67;35.65;;;;;;;17.80;53.13;150511.28;5115222;28;20179;-59
2024/01/23 09:12:37;;;;;;;57.05;36.90;;;;;;;17.54;52.81;150445.16;5115550;28;20668;-58
2024/01/23 09:15:05;;;;;;;62.70;36.73;;;;;;;18.21;52.77;150614.25;5114968;28;20187;-57
2024/01/23 09:17:52;;;;;;;56.10;34.10;;;;;;;17.64;52.87;150471.91;5115032;28;20191;-58
2024/01/23 09:20:19;;;;;;;61.17;34.25;;;;;;;18.16;52.71;150602.81;5115076;28;20207;-55
2024/01/23 09:22:47;;;;;;;79.18;39.45;;;;;;;18.61;51.34;150716.06;5114913;28;20186;-58
2024/01/23 09:25:14;;;;;;;62.13;36.88;;;;;;;18.90;50.23;150788.53;5114743;28;20179;-58
2024/01/23 09:28:01;;;;;;;46.30;33.75;;;;;;;18.63;51.24;150719.84;5114992;28;20256;-57
2024/01/23 09:30:28;;;;;;;77.60;36.85;;;;;;;19.85;48.46;151026.56;5114947;28;20176;-59
2024/01/23 09:32:59;;;;;;;56.42;35.83;;;;;;;19.20;49.58;150863.59;5114702;28;20187;-59
2024/01/23 09:35:26;;;;;;;61.10;38.47;;;;;;;18.60;50.71;150713.50;5114701;28;20199;-58
2024/01/23 09:37:53;;;;;;;43.72;30.65;;;;;;;17.82;52.41;150515.13;5114909;27;20188;-58
2024/01/23 09:40:20;;;;;;;41.03;27.05;;;;;;;15.97;56.04;150052.66;5114659;28;20211;-58
2024/01/23 09:42:48;;;;;;;36.53;27.70;;;;;;;14.74;60.61;149743.00;5114643;27;20187;-57
2024/01/23 09:45:18;;;;;;;39.97;27.30;;;;;;;13.83;66.64;149513.53;5114496;28;20565;-57
2024/01/23 09:47:47;;;;;;;64.37;32.93;;;;;;;14.12;66.79;149588.31;5114689;28;20651;-57
2024/01/23 09:50:17;;;;;;;50.10;34.93;;;;;;;13.12;73.14;149336.13;5114718;28;20549;-58
2024/01/23 09:52:46;;;;;;;42.57;26.30;;;;;;;12.72;78.80;149236.06;5114320;28;20266;-58
2024/01/23 09:55:13;;;;;;;46.90;25.10;;;;;;;12.53;82.95;149187.94;5114097;28;20235;-58
2024/01/23 09:57:41;;;;;;;45.63;23.93;;;;;;;12.05;89.20;149068.94;5114612;27;20286;-57
2024/01/23 10:00:11;;;;;;;31.50;20.40;;;;;;;11.76;92.87;148996.81;5113543;27;20210;-57
2024/01/23 10:02:40;;;;;;;41.87;21.00;;;;;;;11.45;96.26;148919.63;5114670;27;20616;-57
2024/01/23 10:05:09;;;;;;;52.80;22.00;;;;;;;11.56;97.61;148944.91;5114045;28;20219;-57
2024/01/23 10:07:38;;;;;;;29.37;19.03;;;;;;;11.67;96.40;148972.78;5114087;28;20261;-57
2024/01/23 10:10:13;;;;;;;34.27;20.27;;;;;;;10.72;100.00;148735.00;5113979;28;20180;-57
2024/01/23 10:12:43;;;;;;;30.10;19.97;;;;;;;10.85;100.00;148767.88;5114167;28;20183;-59
2024/01/23 10:15:12;;;;;;;31.60;20.03;;;;;;;10.89;100.00;148779.25;5113823;28;20244;-58
2024/01/23 10:17:39;;;;;;;30.07;19.57;;;;;;;10.93;100.00;148788.09;5114136;28;20557;-58
2024/01/23 10:20:08;;;;;;;31.43;20.43;;;;;;;10.77;100.00;148748.91;5114099;28;20253;-56
2024/01/23 10:22:37;;;;;;;28.57;20.00;;;;;;;10.75;100.00;148742.56;5113790;28;20219;-58
2024/01/23 10:25:08;;;;;;;47.80;21.13;;;;;;;10.74;100.00;148740.03;5113623;28;20215;-58
2024/01/23 10:27:35;;;;;;;54.43;23.43;;;;;;;10.38;100.00;148651.56;5113574;28;20189;-58
2024/01/23 10:30:02;;;;;;;50.20;24.43;;;;;;;9.98;100.00;148550.41;5113490;28;20183;-58
2024/01/23 10:32:30;;;;;;;43.10;24.17;;;;;;;9.51;100.00;148434.19;5113847;28;20191;-56
2024/01/23 10:34:57;;;;;;;47.60;23.20;;;;;;;9.35;100.00;148393.81;5113826;28;20191;-56
2024/01/23 10:37:24;;;;;;;64.23;24.20;;;;;;;9.47;100.00;148424.09;5113814;28;20179;-56
2024/01/23 10:39:53;;;;;;;57.07;27.43;;;;;;;9.57;100.00;148448.09;5113395;28;20207;-56
2024/01/23 10:42:21;;;;;;;53.10;25.90;;;;;;;9.72;100.00;148485.97;5113605;28;20598;-58
2024/01/23 10:44:50;;;;;;;44.67;26.13;;;;;;;9.51;100.00;148434.19;5113117;28;20199;-57
2024/01/23 10:47:18;;;;;;;46.67;26.63;;;;;;;9.23;100.00;148363.50;5113246;28;20278;-57
2024/01/23 10:49:45;;;;;;;47.10;28.00;;;;;;;9.40;100.00;148406.44;5113976;28;20247;-58
2024/01/23 10:52:16;;;;;;;59.33;26.93;;;;;;;9.40;100.00;148406.44;5113190;28;20187;-57
2024/01/23 10:54:45;;;;;;;43.97;27.43;;;;;;;9.46;100.00;148421.56;5113219;28;20230;-58
2024/01/23 10:57:22;;;;;;;66.13;26.83;;;;;;;9.64;100.00;148465.78;5113641;28;20206;-57
2024/01/23 10:59:50;;;;;;;52.60;29.03;;;;;;;9.30;100.00;148381.16;5112947;28;20268;-58
2024/01/23 11:02:24;;;;;;;51.23;30.13;;;;;;;9.50;100.00;148431.72;5113197;28;20249;-57
2024/01/23 11:04:52;;;;;;;65.50;32.80;;;;;;;9.47;100.00;148424.09;5112906;28;20197;-57